Porto Seguro, Brazil
Current Conditions -  °F | °C
As of 9:00 PM on Monday 22 Dec 2014 (Local Time) from SBPS Reporting Station
Scattered Clouds Scattered Clouds  
Wind Chill: 77°   Ceiling: Unl
Heat Index: 78°   Visibility: 6mi
Dew Point: 73°   Wind: 8mph
Humidity: 89%   Direction: 60°ENE
Pressure: 29.94"   Gusts: NA
Location:  16.43°S, 39.08°W
Report Text: SBPS 230000Z 06007KT 9999 SCT020 25/23 Q1014
Loading
Personal Weather Stations






























Interactive Weather Map New forecast layout! Learn more

10-Day Weather Forecast

Advertisements
Track Severe Weather on mobile